Bengbu, China
Current Conditions -  °F | °C
As of 9:00 AM on Saturday 25 Oct 2014 (Local Time) from ZSOF Reporting Station
Clear Clear  
Wind Chill: 70°   Ceiling: Unl
Heat Index: 70°   Visibility: 4mi
Dew Point: 55°   Wind: 4mph
Humidity: 60%   Direction: 160°SSE
Pressure: 30.06"   Gusts: NA
Location:  32.95°N, 117.33°E
Report Text: ZSOF 250100Z 16002MPS 7000 NSC 21/13 Q1018 NOSIG
Loading
Personal Weather Stations






























Interactive Weather Map
Tropical Storm Tracking
New forecast layout! Learn more

10-Day Weather Forecast

Advertisements
Track Severe Weather on mobile